createdAt,value
2019-03-31T00:00:25.777Z,9.50
2019-03-31T00:02:54.277Z,9.40
2019-03-31T00:05:22.741Z,9.00
2019-03-31T00:07:51.210Z,8.70
2019-03-31T00:10:19.703Z,8.60
2019-03-31T00:12:48.163Z,8.50
2019-03-31T00:15:16.697Z,8.60
2019-03-31T00:17:45.589Z,8.60
2019-03-31T00:20:14.269Z,8.60
2019-03-31T00:22:42.755Z,8.70
2019-03-31T00:25:13.263Z,9.00
2019-03-31T00:27:41.817Z,9.20
2019-03-31T00:30:10.721Z,9.20
2019-03-31T00:32:39.213Z,9.00
2019-03-31T00:35:07.988Z,9.00
2019-03-31T00:37:36.452Z,9.00
2019-03-31T00:40:06.391Z,9.00
2019-03-31T00:42:34.869Z,8.80
2019-03-31T00:45:04.238Z,8.70
2019-03-31T00:47:32.729Z,8.60
2019-03-31T00:50:01.269Z,8.30
2019-03-31T00:52:29.825Z,8.20
2019-03-31T00:54:58.377Z,8.20
2019-03-31T00:57:26.925Z,8.10
2019-03-31T00:59:55.477Z,8.00
2019-03-31T01:02:25.751Z,8.20
2019-03-31T01:04:54.287Z,8.10
2019-03-31T01:07:25.871Z,8.00
2019-03-31T01:09:56.944Z,7.90
2019-03-31T01:12:28.058Z,7.80
2019-03-31T01:14:56.683Z,7.60
2019-03-31T01:17:25.880Z,7.50
2019-03-31T01:19:57.008Z,7.50
2019-03-31T01:22:25.787Z,7.40
2019-03-31T01:24:54.497Z,7.40
2019-03-31T01:27:24.364Z,7.50
2019-03-31T01:29:53.200Z,7.40
2019-03-31T01:32:21.697Z,7.20
2019-03-31T01:34:50.206Z,7.20
2019-03-31T01:37:20.348Z,7.40
2019-03-31T01:39:49.048Z,7.50
2019-03-31T01:42:17.592Z,7.40
2019-03-31T01:44:46.060Z,7.30
2019-03-31T01:47:14.801Z,7.40
2019-03-31T01:49:43.267Z,7.40
2019-03-31T01:52:11.900Z,7.50
2019-03-31T01:54:40.463Z,7.60
2019-03-31T01:57:09.001Z,7.70
2019-03-31T01:59:37.536Z,7.70
2019-03-31T02:02:07.752Z,7.80
2019-03-31T02:04:36.207Z,7.90
2019-03-31T02:07:07.348Z,7.90
2019-03-31T02:09:35.860Z,7.80
2019-03-31T02:12:04.392Z,7.80
2019-03-31T02:14:32.924Z,7.70
2019-03-31T02:17:01.416Z,7.70
2019-03-31T02:19:29.940Z,7.50
2019-03-31T02:21:58.567Z,7.60
2019-03-31T02:24:27.080Z,7.60
2019-03-31T02:26:55.545Z,7.50
2019-03-31T02:29:24.086Z,7.50
2019-03-31T02:31:52.717Z,7.50
2019-03-31T02:34:21.274Z,7.50
2019-03-31T02:36:49.807Z,7.50
2019-03-31T02:39:18.372Z,7.50
2019-03-31T02:41:46.842Z,7.40
2019-03-31T02:44:15.318Z,7.40
2019-03-31T02:46:43.880Z,7.40
2019-03-31T02:49:12.420Z,7.40
2019-03-31T02:51:41.095Z,7.30
2019-03-31T02:54:09.802Z,7.30
2019-03-31T02:56:39.980Z,7.20
2019-03-31T02:59:08.589Z,7.00
2019-03-31T03:01:38.604Z,7.00
2019-03-31T03:04:09.503Z,7.10
2019-03-31T03:06:40.893Z,7.10
2019-03-31T03:09:09.523Z,7.10
2019-03-31T03:11:39.948Z,7.10
2019-03-31T03:14:28.620Z,7.10
2019-03-31T03:16:57.198Z,7.00
2019-03-31T03:19:36.674Z,7.00
2019-03-31T03:22:00.899Z,7.00
2019-03-31T03:24:30.670Z,7.00
2019-03-31T03:26:59.251Z,7.00
2019-03-31T03:29:36.465Z,7.10
2019-03-31T03:32:04.229Z,7.00
2019-03-31T03:34:32.746Z,6.80
2019-03-31T03:37:14.573Z,6.60
2019-03-31T03:39:53.060Z,6.60
2019-03-31T03:42:21.673Z,6.50
2019-03-31T03:44:50.245Z,6.50
2019-03-31T03:47:18.779Z,6.40
2019-03-31T03:49:52.109Z,6.30
2019-03-31T03:52:20.815Z,6.20
2019-03-31T03:55:12.380Z,6.30
2019-03-31T03:57:40.889Z,6.40
2019-03-31T04:00:20.419Z,6.20
2019-03-31T04:05:46.837Z,6.10
2019-03-31T04:08:15.307Z,6.00
2019-03-31T04:10:46.914Z,6.10
2019-03-31T04:13:15.727Z,6.00
2019-03-31T04:15:44.267Z,6.00
2019-03-31T04:18:12.809Z,6.00
2019-03-31T04:20:41.381Z,5.90
2019-03-31T04:23:09.838Z,5.90
2019-03-31T04:25:40.794Z,5.80
2019-03-31T04:28:09.358Z,5.70
2019-03-31T04:30:37.896Z,5.60
2019-03-31T04:33:06.430Z,5.60
2019-03-31T04:35:34.999Z,5.60
2019-03-31T04:38:03.542Z,5.60
2019-03-31T04:40:33.795Z,5.60
2019-03-31T04:43:02.389Z,5.70
2019-03-31T04:45:30.887Z,5.70
2019-03-31T04:47:59.425Z,5.60
2019-03-31T04:50:29.653Z,5.70
2019-03-31T04:52:58.181Z,5.80
2019-03-31T04:55:26.648Z,5.80
2019-03-31T04:57:55.211Z,5.80
2019-03-31T05:00:24.104Z,5.80
2019-03-31T05:02:52.616Z,5.70
2019-03-31T05:05:21.286Z,5.70
2019-03-31T05:07:49.845Z,5.80
2019-03-31T05:10:18.380Z,5.80
2019-03-31T05:12:46.876Z,5.90
2019-03-31T05:15:15.420Z,6.00
2019-03-31T05:17:43.956Z,6.20
2019-03-31T05:20:18.388Z,6.40
2019-03-31T05:22:55.432Z,6.30
2019-03-31T05:25:24.004Z,6.40
2019-03-31T05:27:52.779Z,6.40
2019-03-31T05:30:21.245Z,6.40
2019-03-31T05:32:49.756Z,6.50
2019-03-31T05:35:18.296Z,6.50
2019-03-31T05:37:51.205Z,6.60
2019-03-31T05:40:17.146Z,6.70
2019-03-31T05:42:45.609Z,6.80
2019-03-31T05:45:14.133Z,6.90
2019-03-31T05:47:42.646Z,7.20
2019-03-31T05:50:11.258Z,7.40
2019-03-31T05:52:39.816Z,7.60
2019-03-31T05:55:08.489Z,7.80
2019-03-31T05:57:38.480Z,8.00
2019-03-31T06:00:07.410Z,8.10
2019-03-31T06:02:36.057Z,8.10
2019-03-31T06:05:06.321Z,8.30
2019-03-31T06:07:34.790Z,8.40
2019-03-31T06:10:04.513Z,8.60
2019-03-31T06:12:32.276Z,8.70
2019-03-31T06:17:36.685Z,9.00
2019-03-31T06:20:06.628Z,9.20
2019-03-31T06:22:35.861Z,9.40
2019-03-31T06:25:05.992Z,9.50
2019-03-31T06:27:36.057Z,9.60
2019-03-31T06:30:06.391Z,9.80
2019-03-31T06:32:34.893Z,10.00
2019-03-31T06:35:04.940Z,10.20
2019-03-31T06:37:33.404Z,10.30
2019-03-31T06:40:02.345Z,10.40
2019-03-31T06:42:30.904Z,10.40
2019-03-31T06:44:59.481Z,10.60
2019-03-31T06:47:27.997Z,10.80
2019-03-31T06:49:56.473Z,10.90
2019-03-31T06:52:25.020Z,11.00
2019-03-31T06:54:53.609Z,11.00
2019-03-31T06:57:22.149Z,11.30
2019-03-31T06:59:50.624Z,11.40
2019-03-31T07:02:19.204Z,11.60
2019-03-31T07:05:00.274Z,11.70
2019-03-31T07:07:17.971Z,11.80
2019-03-31T07:09:46.550Z,11.90
2019-03-31T07:12:15.084Z,12.10
2019-03-31T07:14:43.650Z,12.10
2019-03-31T07:17:13.773Z,12.20
2019-03-31T07:19:42.309Z,12.40
2019-03-31T07:22:15.463Z,12.40
2019-03-31T07:24:41.098Z,12.50
2019-03-31T07:27:12.476Z,12.70
2019-03-31T07:29:41.022Z,12.80
2019-03-31T07:32:09.940Z,12.90
2019-03-31T07:34:38.494Z,12.90
2019-03-31T07:37:06.969Z,13.20
2019-03-31T07:39:35.830Z,13.40
2019-03-31T07:42:04.705Z,13.50
2019-03-31T07:44:33.493Z,13.70
2019-03-31T07:47:02.079Z,13.90
2019-03-31T07:49:30.607Z,13.90
2019-03-31T07:51:59.083Z,13.90
2019-03-31T07:54:27.578Z,13.90
2019-03-31T07:56:56.050Z,13.90
2019-03-31T07:59:25.612Z,14.20
2019-03-31T08:01:54.120Z,14.20
2019-03-31T08:04:22.590Z,14.40
2019-03-31T08:06:51.055Z,14.50
2019-03-31T08:09:19.559Z,14.50
2019-03-31T08:11:48.126Z,14.90
2019-03-31T08:14:16.734Z,14.70
2019-03-31T08:16:45.306Z,14.70
2019-03-31T08:19:13.786Z,14.80
2019-03-31T08:21:42.477Z,15.30
2019-03-31T08:24:11.222Z,15.30
2019-03-31T08:26:39.856Z,15.20
2019-03-31T08:29:09.584Z,15.10
2019-03-31T08:31:38.893Z,15.30
2019-03-31T08:34:08.348Z,15.40
2019-03-31T08:36:36.815Z,15.80
2019-03-31T08:39:08.301Z,15.90
2019-03-31T08:41:36.836Z,15.90
2019-03-31T08:44:05.368Z,15.90
2019-03-31T08:46:33.930Z,16.00
2019-03-31T08:49:02.649Z,16.10
2019-03-31T08:51:31.109Z,16.00
2019-03-31T08:53:59.613Z,16.20
2019-03-31T08:56:28.153Z,16.60
2019-03-31T08:58:56.698Z,16.80
2019-03-31T09:01:25.188Z,16.80
2019-03-31T09:03:55.290Z,16.60
2019-03-31T09:06:27.959Z,16.60
2019-03-31T09:09:02.355Z,16.50
2019-03-31T09:11:33.148Z,16.80
2019-03-31T09:14:01.638Z,16.90
2019-03-31T09:16:30.369Z,17.30
2019-03-31T09:18:58.859Z,17.60
2019-03-31T09:21:27.976Z,17.60
2019-03-31T09:23:56.471Z,17.50
2019-03-31T09:26:25.549Z,17.90
2019-03-31T09:31:45.193Z,18.10
2019-03-31T09:34:13.724Z,18.00
2019-03-31T09:36:43.618Z,17.70
2019-03-31T09:42:22.040Z,18.00
2019-03-31T09:44:50.598Z,18.90
2019-03-31T09:47:19.065Z,18.90
2019-03-31T09:49:47.573Z,18.80
2019-03-31T09:52:16.041Z,18.80
2019-03-31T09:54:48.579Z,18.80
2019-03-31T09:57:18.693Z,18.70
2019-03-31T09:59:47.230Z,18.70
2019-03-31T10:02:17.590Z,19.10
2019-03-31T10:04:46.958Z,19.40
2019-03-31T10:07:15.496Z,19.60
2019-03-31T10:09:46.436Z,19.20
2019-03-31T10:12:15.589Z,20.10
2019-03-31T10:14:47.642Z,20.50
2019-03-31T10:17:16.166Z,20.20
2019-03-31T10:19:44.675Z,20.50
2019-03-31T10:22:13.813Z,20.20
2019-03-31T10:24:42.409Z,20.00
2019-03-31T10:27:10.981Z,19.50
2019-03-31T10:29:41.091Z,19.20
2019-03-31T10:32:10.578Z,19.70
2019-03-31T10:34:44.329Z,19.30
2019-03-31T10:37:13.343Z,19.40
2019-03-31T10:39:50.995Z,19.50
2019-03-31T10:42:20.032Z,19.50
2019-03-31T10:44:48.493Z,19.70
2019-03-31T10:47:17.061Z,19.40
2019-03-31T10:52:34.843Z,20.10
2019-03-31T10:55:04.969Z,19.90
2019-03-31T11:00:37.124Z,19.60
2019-03-31T11:03:07.104Z,19.50
2019-03-31T11:08:27.133Z,20.30
2019-03-31T11:10:59.517Z,20.50
2019-03-31T11:16:07.108Z,19.50
2019-03-31T11:18:35.645Z,19.50
2019-03-31T11:21:05.759Z,19.50
2019-03-31T11:23:34.340Z,19.30
2019-03-31T11:26:02.883Z,19.30
2019-03-31T11:28:31.340Z,20.00
2019-03-31T11:30:59.909Z,19.90
2019-03-31T11:33:28.416Z,20.20
2019-03-31T11:35:56.880Z,19.80
2019-03-31T11:38:25.570Z,20.30
2019-03-31T11:40:54.118Z,20.30
2019-03-31T11:43:22.643Z,19.50
2019-03-31T11:45:51.141Z,19.80
2019-03-31T11:48:19.781Z,20.10
2019-03-31T11:50:48.296Z,19.30
2019-03-31T11:53:16.803Z,19.00
2019-03-31T11:55:45.344Z,18.60
2019-03-31T11:58:13.822Z,18.70
2019-03-31T12:00:43.964Z,19.30
2019-03-31T12:03:12.431Z,20.20
2019-03-31T12:05:41.032Z,20.80
2019-03-31T12:08:09.531Z,21.10
2019-03-31T12:10:38.000Z,21.60
2019-03-31T12:13:06.541Z,21.20
2019-03-31T12:15:35.055Z,20.30
2019-03-31T12:18:03.598Z,20.50
2019-03-31T12:20:32.311Z,20.60
2019-03-31T12:23:00.981Z,21.10
2019-03-31T12:25:29.503Z,22.20
2019-03-31T12:27:58.059Z,22.70
2019-03-31T12:30:28.625Z,22.70
2019-03-31T12:32:57.988Z,21.80
2019-03-31T12:35:27.842Z,20.60
2019-03-31T12:37:56.340Z,19.90
2019-03-31T12:40:31.333Z,19.80
2019-03-31T12:43:00.023Z,19.70
2019-03-31T12:45:28.576Z,19.20
2019-03-31T12:47:57.099Z,18.90
2019-03-31T12:50:25.679Z,18.60
2019-03-31T12:52:54.163Z,18.20
2019-03-31T12:55:23.816Z,18.00
2019-03-31T12:57:52.363Z,17.80
2019-03-31T13:00:24.261Z,17.60
2019-03-31T13:02:52.816Z,17.70
2019-03-31T13:05:21.532Z,17.60
2019-03-31T13:07:56.242Z,17.80
2019-03-31T13:10:20.570Z,18.00
2019-03-31T13:12:49.143Z,17.90
2019-03-31T13:15:17.854Z,17.80
2019-03-31T13:17:46.454Z,18.10
2019-03-31T13:20:15.305Z,18.40
2019-03-31T13:22:45.851Z,18.50
2019-03-31T13:25:14.118Z,19.00
2019-03-31T13:27:42.790Z,20.40
2019-03-31T13:30:11.388Z,21.70
2019-03-31T13:32:39.920Z,22.10
2019-03-31T13:35:08.766Z,21.70
2019-03-31T13:37:37.618Z,22.10
2019-03-31T13:40:08.268Z,22.70
2019-03-31T13:42:37.054Z,22.20
2019-03-31T13:45:06.631Z,24.00
2019-03-31T13:47:35.172Z,24.20
2019-03-31T13:50:05.675Z,24.30
2019-03-31T13:52:34.151Z,24.00
2019-03-31T13:55:02.960Z,22.50
2019-03-31T13:57:32.167Z,22.50
2019-03-31T14:00:01.635Z,22.80
2019-03-31T14:02:30.201Z,23.30
2019-03-31T14:04:58.769Z,24.80
2019-03-31T14:07:27.275Z,25.10
2019-03-31T14:09:55.809Z,25.60
2019-03-31T14:12:24.321Z,25.20
2019-03-31T14:14:52.796Z,25.40
2019-03-31T14:17:24.320Z,24.80
2019-03-31T14:19:51.592Z,24.00
2019-03-31T14:22:20.076Z,23.60
2019-03-31T14:24:48.692Z,24.20
2019-03-31T14:27:17.276Z,24.30
2019-03-31T14:29:45.806Z,24.20
2019-03-31T14:32:14.356Z,24.00
2019-03-31T14:34:42.923Z,23.10
2019-03-31T14:37:11.427Z,22.10
2019-03-31T14:39:39.988Z,21.30
2019-03-31T14:42:08.500Z,22.00
2019-03-31T14:44:38.001Z,22.70
2019-03-31T14:47:06.687Z,23.10
2019-03-31T14:52:37.435Z,24.60
2019-03-31T14:55:06.452Z,24.80
2019-03-31T14:57:34.993Z,23.80
2019-03-31T15:00:14.711Z,23.10
2019-03-31T15:02:35.817Z,23.40
2019-03-31T15:05:05.480Z,23.20
2019-03-31T15:07:34.074Z,23.10
2019-03-31T15:10:02.614Z,22.10
2019-03-31T15:12:31.171Z,22.40
2019-03-31T15:14:59.755Z,23.30
2019-03-31T15:17:29.020Z,23.20
2019-03-31T15:19:57.562Z,23.10
2019-03-31T15:22:26.111Z,23.30
2019-03-31T15:24:54.648Z,23.80
2019-03-31T15:27:23.107Z,23.40
2019-03-31T15:29:51.618Z,23.50
2019-03-31T15:32:20.089Z,23.90
2019-03-31T15:34:48.564Z,23.20
2019-03-31T15:37:17.299Z,23.10
2019-03-31T15:39:45.824Z,23.30
2019-03-31T15:42:14.286Z,23.30
2019-03-31T15:44:43.790Z,22.40
2019-03-31T15:47:12.584Z,22.30
2019-03-31T15:49:41.120Z,22.30
2019-03-31T15:52:09.635Z,22.10
2019-03-31T15:54:38.527Z,22.10
2019-03-31T15:57:07.188Z,21.40
2019-03-31T15:59:35.772Z,20.80
2019-03-31T16:02:04.488Z,20.60
2019-03-31T16:04:33.165Z,20.10
2019-03-31T16:07:01.705Z,19.80
2019-03-31T16:09:30.282Z,19.40
2019-03-31T16:11:58.768Z,19.10
2019-03-31T16:14:27.284Z,18.50
2019-03-31T16:16:55.752Z,18.20
2019-03-31T16:19:24.216Z,17.90
2019-03-31T16:21:52.796Z,17.60
2019-03-31T16:24:22.917Z,17.30
2019-03-31T16:26:52.923Z,17.00
2019-03-31T16:29:21.766Z,17.10
2019-03-31T16:31:50.304Z,16.90
2019-03-31T16:34:18.855Z,16.60
2019-03-31T16:36:47.368Z,16.40
2019-03-31T16:39:15.836Z,16.00
2019-03-31T16:41:44.304Z,15.90
2019-03-31T16:44:12.808Z,15.90
2019-03-31T16:46:41.401Z,15.70
2019-03-31T16:49:10.926Z,15.50
2019-03-31T16:51:39.482Z,15.20
2019-03-31T16:54:08.035Z,15.10
2019-03-31T16:56:36.504Z,14.90
2019-03-31T16:59:05.604Z,14.80
2019-03-31T17:01:34.163Z,14.60
2019-03-31T17:04:02.723Z,14.50
2019-03-31T17:06:31.304Z,14.50
2019-03-31T17:08:59.774Z,14.40
2019-03-31T17:11:28.315Z,14.30
2019-03-31T17:13:56.909Z,14.20
2019-03-31T17:16:25.391Z,14.00
2019-03-31T17:18:54.043Z,13.80
2019-03-31T17:21:22.608Z,13.80
2019-03-31T17:23:51.144Z,13.60
2019-03-31T17:26:20.294Z,13.60
2019-03-31T17:28:49.884Z,13.50
2019-03-31T17:31:17.578Z,13.40
2019-03-31T17:33:46.122Z,13.20
2019-03-31T17:36:17.923Z,13.10
2019-03-31T17:38:46.449Z,13.00
2019-03-31T17:41:15.010Z,12.90
2019-03-31T17:43:43.717Z,12.70
2019-03-31T17:46:24.886Z,12.70
2019-03-31T17:48:53.469Z,12.50
2019-03-31T17:51:22.896Z,12.50
2019-03-31T17:53:52.034Z,12.50
2019-03-31T17:56:20.630Z,12.40
2019-03-31T17:58:49.252Z,12.40
2019-03-31T18:01:22.466Z,12.40
2019-03-31T18:03:51.072Z,12.30
2019-03-31T18:06:19.578Z,12.10
2019-03-31T18:08:48.104Z,12.00
2019-03-31T18:11:16.609Z,11.90
2019-03-31T18:13:45.070Z,11.70
2019-03-31T18:16:13.612Z,11.60
2019-03-31T18:18:42.203Z,11.50
2019-03-31T18:21:10.746Z,11.40
2019-03-31T18:23:39.345Z,11.30
2019-03-31T18:26:07.850Z,11.30
2019-03-31T18:28:39.430Z,11.30
2019-03-31T18:31:07.990Z,11.20
2019-03-31T18:33:36.560Z,11.10
2019-03-31T18:36:05.224Z,11.00
2019-03-31T18:38:33.692Z,11.00
2019-03-31T18:41:03.772Z,10.90
2019-03-31T18:43:32.525Z,10.90
2019-03-31T18:46:01.216Z,10.80
2019-03-31T18:48:29.712Z,10.80
2019-03-31T18:50:58.198Z,10.70
2019-03-31T18:53:34.461Z,10.70
2019-03-31T18:56:07.628Z,10.60
2019-03-31T18:58:53.406Z,10.60
2019-03-31T19:01:32.489Z,10.50
2019-03-31T19:04:08.496Z,10.40
2019-03-31T19:06:41.125Z,10.30
2019-03-31T19:09:11.294Z,10.30
2019-03-31T19:11:54.454Z,10.30
2019-03-31T19:14:42.439Z,10.30
2019-03-31T19:17:24.013Z,10.10
2019-03-31T19:19:54.492Z,10.00
2019-03-31T19:22:33.667Z,10.00
2019-03-31T19:25:03.768Z,9.80
2019-03-31T19:27:49.982Z,9.70
2019-03-31T19:30:20.241Z,9.70
2019-03-31T19:32:59.029Z,9.70
2019-03-31T19:35:45.496Z,9.70
2019-03-31T19:38:18.420Z,9.60
2019-03-31T19:41:04.719Z,9.60
2019-03-31T19:43:38.023Z,9.60
2019-03-31T19:46:14.341Z,9.50
2019-03-31T19:49:06.205Z,9.50
2019-03-31T19:52:06.567Z,9.30
2019-03-31T19:54:49.274Z,9.20
2019-03-31T19:57:21.865Z,9.20
2019-03-31T19:59:58.527Z,9.20
2019-03-31T20:02:33.359Z,9.10
2019-03-31T20:05:07.122Z,9.10
2019-03-31T20:07:56.127Z,9.10
2019-03-31T20:10:45.226Z,9.00
2019-03-31T20:13:31.106Z,8.90
2019-03-31T20:16:17.355Z,8.80
2019-03-31T20:18:53.115Z,8.70
2019-03-31T20:21:31.830Z,8.70
2019-03-31T20:24:12.590Z,8.60
2019-03-31T20:27:01.937Z,8.60
2019-03-31T20:29:36.337Z,8.60
2019-03-31T20:32:09.085Z,8.50
2019-03-31T20:37:46.400Z,8.40
2019-03-31T20:40:19.227Z,8.40
2019-03-31T20:43:05.939Z,8.40
2019-03-31T20:45:34.549Z,8.30
2019-03-31T20:48:03.010Z,8.20
2019-03-31T20:50:31.524Z,8.10
2019-03-31T20:52:59.984Z,8.00
2019-03-31T20:55:28.638Z,7.90
2019-03-31T20:57:57.378Z,7.90
2019-03-31T21:00:25.990Z,7.80
2019-03-31T21:02:54.567Z,7.70
2019-03-31T21:05:23.068Z,7.70
2019-03-31T21:07:51.525Z,7.60
2019-03-31T21:10:19.997Z,7.70
2019-03-31T21:12:48.578Z,7.80
2019-03-31T21:15:17.036Z,7.80
2019-03-31T21:17:45.569Z,7.70
2019-03-31T21:20:14.219Z,7.70
2019-03-31T21:22:42.771Z,7.70
2019-03-31T21:25:13.743Z,7.70
2019-03-31T21:27:41.536Z,7.70
2019-03-31T21:30:10.224Z,7.70
2019-03-31T21:32:38.764Z,7.50
2019-03-31T21:35:07.501Z,7.40
2019-03-31T21:37:36.429Z,7.40
2019-03-31T21:40:07.026Z,7.30
2019-03-31T21:42:35.521Z,7.30
2019-03-31T21:45:05.921Z,7.40
2019-03-31T21:47:34.384Z,7.30
2019-03-31T21:50:03.241Z,7.30
2019-03-31T21:52:31.701Z,7.30
2019-03-31T21:55:00.424Z,7.30
2019-03-31T21:57:29.482Z,7.30
2019-03-31T21:59:58.017Z,7.10
2019-03-31T22:02:26.488Z,7.20
2019-03-31T22:04:55.071Z,7.00
2019-03-31T22:07:23.605Z,7.00
2019-03-31T22:09:52.064Z,7.00
2019-03-31T22:12:20.640Z,7.00
2019-03-31T22:14:49.108Z,7.00
2019-03-31T22:17:17.571Z,7.10
2019-03-31T22:19:46.141Z,7.10
2019-03-31T22:22:14.606Z,7.10
2019-03-31T22:24:43.065Z,7.10
2019-03-31T22:27:11.617Z,7.30
2019-03-31T22:29:40.169Z,7.40
2019-03-31T22:32:08.747Z,7.50
2019-03-31T22:34:37.242Z,7.50
2019-03-31T22:37:05.710Z,7.50
2019-03-31T22:39:34.180Z,7.40
2019-03-31T22:42:02.771Z,7.40
2019-03-31T22:44:31.353Z,7.30
2019-03-31T22:46:59.816Z,7.20
2019-03-31T22:49:28.414Z,7.00
2019-03-31T22:52:16.213Z,7.10
2019-03-31T22:54:44.712Z,6.90
2019-03-31T22:57:13.352Z,6.70
2019-03-31T22:59:42.436Z,6.70
2019-03-31T23:02:11.008Z,6.70
2019-03-31T23:04:39.477Z,6.70
2019-03-31T23:07:08.060Z,6.60
2019-03-31T23:09:36.628Z,6.60
2019-03-31T23:12:05.106Z,6.60
2019-03-31T23:14:33.582Z,6.60
2019-03-31T23:17:02.192Z,6.60
2019-03-31T23:19:30.685Z,6.60
2019-03-31T23:21:59.195Z,6.60
2019-03-31T23:24:27.763Z,6.60
2019-03-31T23:26:56.300Z,6.70
2019-03-31T23:29:24.836Z,6.60
2019-03-31T23:31:53.337Z,6.50
2019-03-31T23:34:21.883Z,6.40
2019-03-31T23:36:50.432Z,6.40
2019-03-31T23:39:18.996Z,6.40
2019-03-31T23:41:47.458Z,6.40
2019-03-31T23:44:15.988Z,6.30
2019-03-31T23:46:44.496Z,6.20
2019-03-31T23:49:13.030Z,6.10
2019-03-31T23:51:41.567Z,6.00
2019-03-31T23:54:10.056Z,6.00
2019-03-31T23:56:38.519Z,6.10
2019-03-31T23:59:06.977Z,6.20
